sensor_id;sensor_type;location;lat;lon;timestamp;P1;durP1;ratioP1;P2;durP2;ratioP2
28028;SDS011;15345;59.364;18.016;2022-09-30T00:01:06;1.80;;;1.70;;
28028;SDS011;15345;59.364;18.016;2022-09-30T00:02:25;1.20;;;1.15;;
28028;SDS011;15345;59.364;18.016;2022-09-30T00:03:43;1.67;;;1.58;;
28028;SDS011;15345;59.364;18.016;2022-09-30T00:05:02;3.08;;;1.65;;
28028;SDS011;15345;59.364;18.016;2022-09-30T00:06:22;1.70;;;1.60;;
28028;SDS011;15345;59.364;18.016;2022-09-30T00:07:42;1.67;;;1.35;;
28028;SDS011;15345;59.364;18.016;2022-09-30T00:09:01;3.53;;;1.85;;
28028;SDS011;15345;59.364;18.016;2022-09-30T00:10:20;2.78;;;1.40;;
28028;SDS011;15345;59.364;18.016;2022-09-30T00:11:40;2.15;;;1.65;;
28028;SDS011;15345;59.364;18.016;2022-09-30T00:12:59;2.30;;;1.27;;
28028;SDS011;15345;59.364;18.016;2022-09-30T00:14:19;2.88;;;1.42;;
28028;SDS011;15345;59.364;18.016;2022-09-30T00:15:39;1.70;;;1.60;;
28028;SDS011;15345;59.364;18.016;2022-09-30T00:16:58;1.52;;;1.30;;
28028;SDS011;15345;59.364;18.016;2022-09-30T00:18:17;2.53;;;1.60;;
28028;SDS011;15345;59.364;18.016;2022-09-30T00:19:36;3.00;;;1.45;;
28028;SDS011;15345;59.364;18.016;2022-09-30T00:20:55;1.50;;;1.40;;
28028;SDS011;15345;59.364;18.016;2022-09-30T00:22:14;2.47;;;1.35;;
28028;SDS011;15345;59.364;18.016;2022-09-30T00:23:34;2.72;;;1.23;;
28028;SDS011;15345;59.364;18.016;2022-09-30T00:24:54;1.80;;;1.50;;
28028;SDS011;15345;59.364;18.016;2022-09-30T00:26:14;2.58;;;1.50;;
28028;SDS011;15345;59.364;18.016;2022-09-30T00:27:34;3.15;;;1.40;;
28028;SDS011;15345;59.364;18.016;2022-09-30T00:28:54;1.45;;;1.35;;
28028;SDS011;15345;59.364;18.016;2022-09-30T00:30:13;1.50;;;1.40;;
28028;SDS011;15345;59.364;18.016;2022-09-30T00:31:32;1.40;;;1.30;;
28028;SDS011;15345;59.364;18.016;2022-09-30T00:32:52;1.40;;;1.30;;
28028;SDS011;15345;59.364;18.016;2022-09-30T00:34:11;1.30;;;1.20;;
28028;SDS011;15345;59.364;18.016;2022-09-30T00:35:30;2.65;;;1.40;;
28028;SDS011;15345;59.364;18.016;2022-09-30T00:36:50;1.42;;;1.33;;
28028;SDS011;15345;59.364;18.016;2022-09-30T00:38:09;2.40;;;1.50;;
28028;SDS011;15345;59.364;18.016;2022-09-30T00:39:29;3.80;;;1.50;;
28028;SDS011;15345;59.364;18.016;2022-09-30T00:40:47;2.55;;;1.50;;
28028;SDS011;15345;59.364;18.016;2022-09-30T00:42:10;2.47;;;1.60;;
28028;SDS011;15345;59.364;18.016;2022-09-30T00:43:38;2.08;;;1.33;;
28028;SDS011;15345;59.364;18.016;2022-09-30T00:45:03;1.27;;;1.27;;
28028;SDS011;15345;59.364;18.016;2022-09-30T00:46:34;1.58;;;1.48;;
28028;SDS011;15345;59.364;18.016;2022-09-30T00:48:55;1.77;;;1.30;;
28028;SDS011;15345;59.364;18.016;2022-09-30T00:49:42;4.45;;;1.58;;
28028;SDS011;15345;59.364;18.016;2022-09-30T00:51:01;1.70;;;1.30;;
28028;SDS011;15345;59.364;18.016;2022-09-30T00:52:21;4.18;;;1.58;;
28028;SDS011;15345;59.364;18.016;2022-09-30T00:53:46;1.40;;;1.20;;
28028;SDS011;15345;59.364;18.016;2022-09-30T00:55:09;1.63;;;1.52;;
28028;SDS011;15345;59.364;18.016;2022-09-30T00:56:32;3.53;;;1.50;;
28028;SDS011;15345;59.364;18.016;2022-09-30T00:57:52;1.60;;;1.50;;
28028;SDS011;15345;59.364;18.016;2022-09-30T00:59:18;1.38;;;1.27;;
28028;SDS011;15345;59.364;18.016;2022-09-30T01:00:39;1.20;;;1.20;;
28028;SDS011;15345;59.364;18.016;2022-09-30T01:01:58;1.25;;;1.10;;
28028;SDS011;15345;59.364;18.016;2022-09-30T01:03:18;1.48;;;1.38;;
28028;SDS011;15345;59.364;18.016;2022-09-30T01:04:40;4.40;;;1.48;;
28028;SDS011;15345;59.364;18.016;2022-09-30T01:06:00;1.45;;;1.40;;
28028;SDS011;15345;59.364;18.016;2022-09-30T01:07:19;1.60;;;1.50;;
28028;SDS011;15345;59.364;18.016;2022-09-30T01:08:39;1.52;;;1.40;;
28028;SDS011;15345;59.364;18.016;2022-09-30T01:09:58;2.70;;;1.50;;
28028;SDS011;15345;59.364;18.016;2022-09-30T01:11:17;1.90;;;1.30;;
28028;SDS011;15345;59.364;18.016;2022-09-30T01:12:36;1.20;;;1.10;;
28028;SDS011;15345;59.364;18.016;2022-09-30T01:13:58;1.77;;;1.20;;
28028;SDS011;15345;59.364;18.016;2022-09-30T01:15:18;2.65;;;1.42;;
28028;SDS011;15345;59.364;18.016;2022-09-30T01:18:17;1.55;;;1.38;;
28028;SDS011;15345;59.364;18.016;2022-09-30T01:19:51;2.08;;;1.40;;
28028;SDS011;15345;59.364;18.016;2022-09-30T01:30:19;2.00;;;1.60;;
28028;SDS011;15345;59.364;18.016;2022-09-30T01:34:45;1.90;;;1.33;;
28028;SDS011;15345;59.364;18.016;2022-09-30T01:38:12;2.08;;;1.33;;
28028;SDS011;15345;59.364;18.016;2022-09-30T01:39:37;1.90;;;1.25;;
28028;SDS011;15345;59.364;18.016;2022-09-30T01:44:17;2.28;;;1.73;;
28028;SDS011;15345;59.364;18.016;2022-09-30T01:45:45;2.53;;;1.50;;
28028;SDS011;15345;59.364;18.016;2022-09-30T01:50:21;2.50;;;1.30;;
28028;SDS011;15345;59.364;18.016;2022-09-30T01:51:47;2.08;;;1.52;;
28028;SDS011;15345;59.364;18.016;2022-09-30T01:53:30;1.40;;;1.30;;
28028;SDS011;15345;59.364;18.016;2022-09-30T01:55:06;3.58;;;1.42;;
28028;SDS011;15345;59.364;18.016;2022-09-30T01:56:28;2.17;;;1.70;;
28028;SDS011;15345;59.364;18.016;2022-09-30T01:57:52;1.60;;;1.50;;
28028;SDS011;15345;59.364;18.016;2022-09-30T01:59:16;2.58;;;1.63;;
28028;SDS011;15345;59.364;18.016;2022-09-30T02:00:38;1.70;;;1.60;;
28028;SDS011;15345;59.364;18.016;2022-09-30T02:03:38;1.75;;;1.60;;
28028;SDS011;15345;59.364;18.016;2022-09-30T02:05:02;3.63;;;1.65;;
28028;SDS011;15345;59.364;18.016;2022-09-30T02:06:27;3.55;;;1.65;;
28028;SDS011;15345;59.364;18.016;2022-09-30T02:07:50;1.50;;;1.40;;
28028;SDS011;15345;59.364;18.016;2022-09-30T02:09:16;1.70;;;1.50;;
28028;SDS011;15345;59.364;18.016;2022-09-30T02:10:41;2.03;;;1.50;;
28028;SDS011;15345;59.364;18.016;2022-09-30T02:12:03;1.60;;;1.50;;
28028;SDS011;15345;59.364;18.016;2022-09-30T02:13:45;1.52;;;1.38;;
28028;SDS011;15345;59.364;18.016;2022-09-30T02:15:05;4.45;;;1.58;;
28028;SDS011;15345;59.364;18.016;2022-09-30T02:16:28;3.28;;;1.67;;
28028;SDS011;15345;59.364;18.016;2022-09-30T02:17:51;2.28;;;1.70;;
28028;SDS011;15345;59.364;18.016;2022-09-30T02:20:50;2.00;;;1.60;;
28028;SDS011;15345;59.364;18.016;2022-09-30T02:22:20;1.45;;;1.35;;
28028;SDS011;15345;59.364;18.016;2022-09-30T02:23:40;3.33;;;1.30;;
28028;SDS011;15345;59.364;18.016;2022-09-30T02:25:00;2.13;;;1.77;;
28028;SDS011;15345;59.364;18.016;2022-09-30T02:26:27;3.08;;;1.75;;
28028;SDS011;15345;59.364;18.016;2022-09-30T02:27:48;1.33;;;1.10;;
28028;SDS011;15345;59.364;18.016;2022-09-30T02:30:31;2.85;;;1.38;;
28028;SDS011;15345;59.364;18.016;2022-09-30T02:31:52;1.83;;;1.42;;
28028;SDS011;15345;59.364;18.016;2022-09-30T02:33:15;3.55;;;1.35;;
28028;SDS011;15345;59.364;18.016;2022-09-30T02:34:44;2.70;;;1.63;;
28028;SDS011;15345;59.364;18.016;2022-09-30T02:37:40;1.60;;;1.50;;
28028;SDS011;15345;59.364;18.016;2022-09-30T02:39:01;2.50;;;1.10;;
28028;SDS011;15345;59.364;18.016;2022-09-30T02:40:55;1.50;;;1.40;;
28028;SDS011;15345;59.364;18.016;2022-09-30T02:42:17;1.50;;;1.40;;
28028;SDS011;15345;59.364;18.016;2022-09-30T02:43:38;1.48;;;1.38;;
28028;SDS011;15345;59.364;18.016;2022-09-30T02:45:00;1.52;;;1.30;;
28028;SDS011;15345;59.364;18.016;2022-09-30T02:49:03;1.55;;;1.42;;
28028;SDS011;15345;59.364;18.016;2022-09-30T02:50:30;2.10;;;1.25;;
28028;SDS011;15345;59.364;18.016;2022-09-30T02:53:24;4.05;;;1.48;;
28028;SDS011;15345;59.364;18.016;2022-09-30T02:59:03;3.40;;;1.65;;
28028;SDS011;15345;59.364;18.016;2022-09-30T03:00:22;5.05;;;1.80;;
28028;SDS011;15345;59.364;18.016;2022-09-30T03:01:42;1.65;;;1.50;;
28028;SDS011;15345;59.364;18.016;2022-09-30T03:03:02;1.75;;;1.63;;
28028;SDS011;15345;59.364;18.016;2022-09-30T03:04:27;6.05;;;1.70;;
28028;SDS011;15345;59.364;18.016;2022-09-30T03:05:47;1.73;;;1.63;;
28028;SDS011;15345;59.364;18.016;2022-09-30T03:07:10;1.52;;;1.40;;
28028;SDS011;15345;59.364;18.016;2022-09-30T03:08:29;2.03;;;1.38;;
28028;SDS011;15345;59.364;18.016;2022-09-30T03:09:48;2.95;;;1.80;;
28028;SDS011;15345;59.364;18.016;2022-09-30T03:11:09;1.75;;;1.55;;
28028;SDS011;15345;59.364;18.016;2022-09-30T03:13:58;1.70;;;1.58;;
28028;SDS011;15345;59.364;18.016;2022-09-30T03:16:26;2.55;;;1.58;;
28028;SDS011;15345;59.364;18.016;2022-09-30T03:19:10;1.80;;;1.70;;
28028;SDS011;15345;59.364;18.016;2022-09-30T03:20:35;1.85;;;1.75;;
28028;SDS011;15345;59.364;18.016;2022-09-30T03:28:06;2.60;;;1.63;;
28028;SDS011;15345;59.364;18.016;2022-09-30T03:30:54;1.65;;;1.55;;
28028;SDS011;15345;59.364;18.016;2022-09-30T03:34:59;1.70;;;1.60;;
28028;SDS011;15345;59.364;18.016;2022-09-30T03:39:24;1.85;;;1.75;;
28028;SDS011;15345;59.364;18.016;2022-09-30T03:42:23;5.07;;;2.13;;
28028;SDS011;15345;59.364;18.016;2022-09-30T03:47:52;2.58;;;1.83;;
28028;SDS011;15345;59.364;18.016;2022-09-30T03:49:14;2.40;;;1.90;;
28028;SDS011;15345;59.364;18.016;2022-09-30T03:50:35;1.70;;;1.60;;
28028;SDS011;15345;59.364;18.016;2022-09-30T03:51:55;1.67;;;1.58;;
28028;SDS011;15345;59.364;18.016;2022-09-30T03:53:15;1.85;;;1.75;;
28028;SDS011;15345;59.364;18.016;2022-09-30T03:54:34;3.33;;;1.88;;
28028;SDS011;15345;59.364;18.016;2022-09-30T03:56:01;2.42;;;1.88;;
28028;SDS011;15345;59.364;18.016;2022-09-30T03:57:20;1.77;;;1.60;;
28028;SDS011;15345;59.364;18.016;2022-09-30T03:58:42;1.67;;;1.58;;
28028;SDS011;15345;59.364;18.016;2022-09-30T04:00:02;2.88;;;1.73;;
28028;SDS011;15345;59.364;18.016;2022-09-30T04:01:22;4.35;;;1.98;;
28028;SDS011;15345;59.364;18.016;2022-09-30T04:02:41;4.68;;;1.80;;
28028;SDS011;15345;59.364;18.016;2022-09-30T04:04:00;1.60;;;1.50;;
28028;SDS011;15345;59.364;18.016;2022-09-30T04:05:19;1.75;;;1.65;;
28028;SDS011;15345;59.364;18.016;2022-09-30T04:06:38;2.83;;;1.80;;
28028;SDS011;15345;59.364;18.016;2022-09-30T04:07:57;1.73;;;1.60;;
28028;SDS011;15345;59.364;18.016;2022-09-30T04:09:16;4.88;;;2.33;;
28028;SDS011;15345;59.364;18.016;2022-09-30T04:10:34;1.90;;;1.80;;
28028;SDS011;15345;59.364;18.016;2022-09-30T04:11:53;4.82;;;1.90;;
28028;SDS011;15345;59.364;18.016;2022-09-30T04:13:12;3.22;;;1.63;;
28028;SDS011;15345;59.364;18.016;2022-09-30T04:14:32;2.88;;;1.80;;
28028;SDS011;15345;59.364;18.016;2022-09-30T04:15:54;2.63;;;1.73;;
28028;SDS011;15345;59.364;18.016;2022-09-30T04:17:13;2.23;;;1.80;;
28028;SDS011;15345;59.364;18.016;2022-09-30T04:18:36;2.97;;;1.90;;
28028;SDS011;15345;59.364;18.016;2022-09-30T04:19:55;2.45;;;1.95;;
28028;SDS011;15345;59.364;18.016;2022-09-30T04:21:14;3.00;;;2.08;;
28028;SDS011;15345;59.364;18.016;2022-09-30T04:22:33;3.10;;;1.83;;
28028;SDS011;15345;59.364;18.016;2022-09-30T04:23:53;5.28;;;2.00;;
28028;SDS011;15345;59.364;18.016;2022-09-30T04:25:12;1.90;;;1.80;;
28028;SDS011;15345;59.364;18.016;2022-09-30T04:26:31;1.70;;;1.60;;
28028;SDS011;15345;59.364;18.016;2022-09-30T04:27:50;2.60;;;2.40;;
28028;SDS011;15345;59.364;18.016;2022-09-30T04:29:09;2.83;;;1.80;;
28028;SDS011;15345;59.364;18.016;2022-09-30T04:30:28;5.32;;;1.90;;
28028;SDS011;15345;59.364;18.016;2022-09-30T04:31:47;3.80;;;2.10;;
28028;SDS011;15345;59.364;18.016;2022-09-30T04:33:06;3.10;;;1.58;;
28028;SDS011;15345;59.364;18.016;2022-09-30T04:34:25;1.90;;;1.80;;
28028;SDS011;15345;59.364;18.016;2022-09-30T04:35:44;1.65;;;1.55;;
28028;SDS011;15345;59.364;18.016;2022-09-30T04:37:03;2.45;;;2.22;;
28028;SDS011;15345;59.364;18.016;2022-09-30T04:38:22;4.72;;;1.98;;
28028;SDS011;15345;59.364;18.016;2022-09-30T04:39:44;1.70;;;1.40;;
28028;SDS011;15345;59.364;18.016;2022-09-30T04:41:04;1.80;;;1.70;;
28028;SDS011;15345;59.364;18.016;2022-09-30T04:42:23;4.47;;;2.20;;
28028;SDS011;15345;59.364;18.016;2022-09-30T04:43:43;5.18;;;1.90;;
28028;SDS011;15345;59.364;18.016;2022-09-30T04:45:05;4.13;;;2.20;;
28028;SDS011;15345;59.364;18.016;2022-09-30T04:46:24;2.20;;;2.00;;
28028;SDS011;15345;59.364;18.016;2022-09-30T04:47:43;2.75;;;2.20;;
28028;SDS011;15345;59.364;18.016;2022-09-30T04:49:06;2.72;;;2.20;;
28028;SDS011;15345;59.364;18.016;2022-09-30T04:50:25;4.10;;;1.95;;
28028;SDS011;15345;59.364;18.016;2022-09-30T04:51:44;2.90;;;1.83;;
28028;SDS011;15345;59.364;18.016;2022-09-30T04:53:03;5.47;;;2.35;;
28028;SDS011;15345;59.364;18.016;2022-09-30T04:54:22;3.58;;;2.10;;
28028;SDS011;15345;59.364;18.016;2022-09-30T04:55:43;2.38;;;2.17;;
28028;SDS011;15345;59.364;18.016;2022-09-30T04:57:03;3.47;;;2.30;;
28028;SDS011;15345;59.364;18.016;2022-09-30T04:58:22;3.08;;;2.55;;
28028;SDS011;15345;59.364;18.016;2022-09-30T04:59:42;2.63;;;2.05;;
28028;SDS011;15345;59.364;18.016;2022-09-30T05:02:21;3.88;;;2.42;;
28028;SDS011;15345;59.364;18.016;2022-09-30T05:03:40;4.18;;;2.10;;
28028;SDS011;15345;59.364;18.016;2022-09-30T05:04:59;2.47;;;2.20;;
28028;SDS011;15345;59.364;18.016;2022-09-30T05:06:18;2.30;;;2.10;;
28028;SDS011;15345;59.364;18.016;2022-09-30T05:07:37;2.85;;;2.10;;
28028;SDS011;15345;59.364;18.016;2022-09-30T05:08:56;2.17;;;2.08;;
28028;SDS011;15345;59.364;18.016;2022-09-30T05:10:15;2.42;;;2.22;;
28028;SDS011;15345;59.364;18.016;2022-09-30T05:11:34;2.75;;;2.40;;
28028;SDS011;15345;59.364;18.016;2022-09-30T05:12:56;2.75;;;2.45;;
28028;SDS011;15345;59.364;18.016;2022-09-30T05:14:15;5.10;;;2.00;;
28028;SDS011;15345;59.364;18.016;2022-09-30T05:15:35;2.28;;;2.13;;
28028;SDS011;15345;59.364;18.016;2022-09-30T05:16:54;4.20;;;2.58;;
28028;SDS011;15345;59.364;18.016;2022-09-30T05:18:13;2.70;;;2.50;;
28028;SDS011;15345;59.364;18.016;2022-09-30T05:19:31;4.47;;;2.63;;
28028;SDS011;15345;59.364;18.016;2022-09-30T05:20:51;2.20;;;2.08;;
28028;SDS011;15345;59.364;18.016;2022-09-30T05:22:10;6.53;;;2.40;;
28028;SDS011;15345;59.364;18.016;2022-09-30T05:23:31;3.60;;;2.40;;
28028;SDS011;15345;59.364;18.016;2022-09-30T05:24:51;2.50;;;2.35;;
28028;SDS011;15345;59.364;18.016;2022-09-30T05:26:11;5.07;;;2.55;;
28028;SDS011;15345;59.364;18.016;2022-09-30T05:27:30;2.33;;;2.22;;
28028;SDS011;15345;59.364;18.016;2022-09-30T05:28:49;2.70;;;2.50;;
28028;SDS011;15345;59.364;18.016;2022-09-30T05:30:08;2.67;;;2.42;;
28028;SDS011;15345;59.364;18.016;2022-09-30T05:31:27;9.18;;;2.45;;
28028;SDS011;15345;59.364;18.016;2022-09-30T05:32:46;3.80;;;2.08;;
28028;SDS011;15345;59.364;18.016;2022-09-30T05:34:05;5.72;;;2.60;;
28028;SDS011;15345;59.364;18.016;2022-09-30T05:35:24;4.10;;;2.45;;
28028;SDS011;15345;59.364;18.016;2022-09-30T05:36:42;6.43;;;2.45;;
28028;SDS011;15345;59.364;18.016;2022-09-30T05:38:02;5.22;;;2.75;;
28028;SDS011;15345;59.364;18.016;2022-09-30T05:39:22;4.93;;;2.33;;
28028;SDS011;15345;59.364;18.016;2022-09-30T05:40:41;2.58;;;2.33;;
28028;SDS011;15345;59.364;18.016;2022-09-30T05:41:59;2.20;;;2.10;;
28028;SDS011;15345;59.364;18.016;2022-09-30T05:43:18;3.35;;;2.13;;
28028;SDS011;15345;59.364;18.016;2022-09-30T05:44:37;2.45;;;2.13;;
28028;SDS011;15345;59.364;18.016;2022-09-30T05:45:56;2.50;;;2.30;;
28028;SDS011;15345;59.364;18.016;2022-09-30T05:47:15;2.90;;;2.70;;
28028;SDS011;15345;59.364;18.016;2022-09-30T05:48:35;3.80;;;2.30;;
28028;SDS011;15345;59.364;18.016;2022-09-30T05:49:53;6.10;;;2.63;;
28028;SDS011;15345;59.364;18.016;2022-09-30T05:51:12;3.45;;;2.28;;
28028;SDS011;15345;59.364;18.016;2022-09-30T05:52:31;8.57;;;3.05;;
28028;SDS011;15345;59.364;18.016;2022-09-30T05:53:50;7.65;;;2.55;;
28028;SDS011;15345;59.364;18.016;2022-09-30T05:55:09;3.45;;;2.40;;
28028;SDS011;15345;59.364;18.016;2022-09-30T05:56:28;4.47;;;2.42;;
28028;SDS011;15345;59.364;18.016;2022-09-30T05:57:48;2.80;;;2.60;;
28028;SDS011;15345;59.364;18.016;2022-09-30T05:59:06;2.83;;;2.50;;
28028;SDS011;15345;59.364;18.016;2022-09-30T06:00:25;3.25;;;2.53;;
28028;SDS011;15345;59.364;18.016;2022-09-30T06:01:44;5.78;;;2.40;;
28028;SDS011;15345;59.364;18.016;2022-09-30T06:03:03;4.07;;;2.65;;
28028;SDS011;15345;59.364;18.016;2022-09-30T06:04:22;2.45;;;2.25;;
28028;SDS011;15345;59.364;18.016;2022-09-30T06:05:41;4.20;;;2.80;;
28028;SDS011;15345;59.364;18.016;2022-09-30T06:07:00;3.00;;;2.50;;
28028;SDS011;15345;59.364;18.016;2022-09-30T06:08:19;2.65;;;2.45;;
28028;SDS011;15345;59.364;18.016;2022-09-30T06:09:38;3.25;;;2.53;;
28028;SDS011;15345;59.364;18.016;2022-09-30T06:10:57;3.67;;;2.25;;
28028;SDS011;15345;59.364;18.016;2022-09-30T06:12:17;5.75;;;2.03;;
28028;SDS011;15345;59.364;18.016;2022-09-30T06:13:36;6.28;;;2.67;;
28028;SDS011;15345;59.364;18.016;2022-09-30T06:14:55;4.80;;;2.53;;
28028;SDS011;15345;59.364;18.016;2022-09-30T06:16:14;5.93;;;2.28;;
28028;SDS011;15345;59.364;18.016;2022-09-30T06:17:33;6.35;;;2.28;;
28028;SDS011;15345;59.364;18.016;2022-09-30T06:18:52;6.85;;;2.90;;
28028;SDS011;15345;59.364;18.016;2022-09-30T06:20:13;6.47;;;3.08;;
28028;SDS011;15345;59.364;18.016;2022-09-30T06:21:32;5.82;;;2.67;;
28028;SDS011;15345;59.364;18.016;2022-09-30T06:22:50;2.67;;;2.47;;
28028;SDS011;15345;59.364;18.016;2022-09-30T06:24:09;3.85;;;2.42;;
28028;SDS011;15345;59.364;18.016;2022-09-30T06:25:31;5.10;;;2.30;;
28028;SDS011;15345;59.364;18.016;2022-09-30T06:26:50;3.65;;;2.40;;
28028;SDS011;15345;59.364;18.016;2022-09-30T06:28:09;4.95;;;3.05;;
28028;SDS011;15345;59.364;18.016;2022-09-30T06:29:28;7.30;;;3.05;;
28028;SDS011;15345;59.364;18.016;2022-09-30T06:30:47;4.15;;;2.53;;
28028;SDS011;15345;59.364;18.016;2022-09-30T06:32:06;5.82;;;3.05;;
28028;SDS011;15345;59.364;18.016;2022-09-30T06:33:25;14.52;;;2.78;;
28028;SDS011;15345;59.364;18.016;2022-09-30T06:34:45;3.60;;;2.90;;
28028;SDS011;15345;59.364;18.016;2022-09-30T06:36:04;3.45;;;2.88;;
28028;SDS011;15345;59.364;18.016;2022-09-30T06:37:24;3.58;;;2.72;;
28028;SDS011;15345;59.364;18.016;2022-09-30T06:38:43;4.15;;;2.92;;
28028;SDS011;15345;59.364;18.016;2022-09-30T06:40:03;3.28;;;2.60;;
28028;SDS011;15345;59.364;18.016;2022-09-30T06:41:23;3.65;;;2.85;;
28028;SDS011;15345;59.364;18.016;2022-09-30T06:42:46;7.85;;;2.65;;
28028;SDS011;15345;59.364;18.016;2022-09-30T06:44:05;6.22;;;2.72;;
28028;SDS011;15345;59.364;18.016;2022-09-30T06:45:24;2.75;;;2.53;;
28028;SDS011;15345;59.364;18.016;2022-09-30T06:46:43;5.60;;;2.95;;
28028;SDS011;15345;59.364;18.016;2022-09-30T06:48:03;4.82;;;2.60;;
28028;SDS011;15345;59.364;18.016;2022-09-30T06:49:22;3.47;;;2.85;;
28028;SDS011;15345;59.364;18.016;2022-09-30T06:50:44;3.40;;;2.70;;
28028;SDS011;15345;59.364;18.016;2022-09-30T06:52:04;2.85;;;2.65;;
28028;SDS011;15345;59.364;18.016;2022-09-30T06:53:23;4.53;;;2.92;;
28028;SDS011;15345;59.364;18.016;2022-09-30T06:54:42;6.13;;;2.80;;
28028;SDS011;15345;59.364;18.016;2022-09-30T06:56:01;3.17;;;2.88;;
28028;SDS011;15345;59.364;18.016;2022-09-30T06:57:20;3.83;;;2.42;;
28028;SDS011;15345;59.364;18.016;2022-09-30T06:58:42;3.75;;;2.85;;
28028;SDS011;15345;59.364;18.016;2022-09-30T07:00:02;5.38;;;2.60;;
28028;SDS011;15345;59.364;18.016;2022-09-30T07:01:22;7.60;;;2.75;;
28028;SDS011;15345;59.364;18.016;2022-09-30T07:02:42;3.75;;;2.63;;
28028;SDS011;15345;59.364;18.016;2022-09-30T07:04:00;3.13;;;2.67;;
28028;SDS011;15345;59.364;18.016;2022-09-30T07:05:25;7.38;;;3.30;;
28028;SDS011;15345;59.364;18.016;2022-09-30T07:06:44;2.50;;;2.40;;
28028;SDS011;15345;59.364;18.016;2022-09-30T07:08:03;3.20;;;2.65;;
28028;SDS011;15345;59.364;18.016;2022-09-30T07:09:23;8.90;;;2.92;;
28028;SDS011;15345;59.364;18.016;2022-09-30T07:10:45;4.93;;;3.00;;
28028;SDS011;15345;59.364;18.016;2022-09-30T07:12:04;8.13;;;2.92;;
28028;SDS011;15345;59.364;18.016;2022-09-30T07:13:25;4.85;;;2.95;;
28028;SDS011;15345;59.364;18.016;2022-09-30T07:14:44;3.10;;;2.80;;
28028;SDS011;15345;59.364;18.016;2022-09-30T07:16:04;2.90;;;2.60;;
28028;SDS011;15345;59.364;18.016;2022-09-30T07:17:23;5.85;;;2.90;;
28028;SDS011;15345;59.364;18.016;2022-09-30T07:18:42;2.75;;;2.47;;
28028;SDS011;15345;59.364;18.016;2022-09-30T07:20:02;3.05;;;2.40;;
28028;SDS011;15345;59.364;18.016;2022-09-30T07:21:21;4.85;;;3.00;;
28028;SDS011;15345;59.364;18.016;2022-09-30T07:22:40;4.68;;;2.72;;
28028;SDS011;15345;59.364;18.016;2022-09-30T07:24:00;3.50;;;2.78;;
28028;SDS011;15345;59.364;18.016;2022-09-30T07:25:19;4.40;;;2.65;;
28028;SDS011;15345;59.364;18.016;2022-09-30T07:26:37;3.15;;;2.47;;
28028;SDS011;15345;59.364;18.016;2022-09-30T07:27:57;3.67;;;3.25;;
28028;SDS011;15345;59.364;18.016;2022-09-30T07:29:16;3.88;;;2.65;;
28028;SDS011;15345;59.364;18.016;2022-09-30T07:30:35;6.28;;;3.00;;
28028;SDS011;15345;59.364;18.016;2022-09-30T07:31:54;3.53;;;2.90;;
28028;SDS011;15345;59.364;18.016;2022-09-30T07:33:13;4.05;;;2.33;;
28028;SDS011;15345;59.364;18.016;2022-09-30T07:34:34;4.35;;;3.00;;
28028;SDS011;15345;59.364;18.016;2022-09-30T07:35:57;5.13;;;2.78;;
28028;SDS011;15345;59.364;18.016;2022-09-30T07:37:17;3.78;;;3.25;;
28028;SDS011;15345;59.364;18.016;2022-09-30T07:38:37;3.10;;;2.80;;
28028;SDS011;15345;59.364;18.016;2022-09-30T07:39:56;3.00;;;2.80;;
28028;SDS011;15345;59.364;18.016;2022-09-30T07:41:16;3.30;;;3.00;;
28028;SDS011;15345;59.364;18.016;2022-09-30T07:42:37;2.72;;;2.53;;
28028;SDS011;15345;59.364;18.016;2022-09-30T07:43:57;2.97;;;2.70;;
28028;SDS011;15345;59.364;18.016;2022-09-30T07:45:20;2.97;;;2.75;;
28028;SDS011;15345;59.364;18.016;2022-09-30T07:46:39;2.40;;;2.30;;
28028;SDS011;15345;59.364;18.016;2022-09-30T07:47:58;2.95;;;2.53;;
28028;SDS011;15345;59.364;18.016;2022-09-30T07:49:18;3.40;;;2.40;;
28028;SDS011;15345;59.364;18.016;2022-09-30T07:50:42;3.10;;;2.28;;
28028;SDS011;15345;59.364;18.016;2022-09-30T07:52:03;3.92;;;2.97;;
28028;SDS011;15345;59.364;18.016;2022-09-30T07:53:22;8.48;;;2.53;;
28028;SDS011;15345;59.364;18.016;2022-09-30T07:54:41;4.90;;;2.63;;
28028;SDS011;15345;59.364;18.016;2022-09-30T07:56:04;4.80;;;2.70;;
28028;SDS011;15345;59.364;18.016;2022-09-30T07:57:23;6.60;;;2.92;;
28028;SDS011;15345;59.364;18.016;2022-09-30T07:58:42;3.03;;;2.47;;
28028;SDS011;15345;59.364;18.016;2022-09-30T08:00:00;3.42;;;2.53;;
28028;SDS011;15345;59.364;18.016;2022-09-30T08:01:19;2.33;;;2.13;;
28028;SDS011;15345;59.364;18.016;2022-09-30T08:02:38;2.58;;;2.47;;
28028;SDS011;15345;59.364;18.016;2022-09-30T08:04:00;6.60;;;2.95;;
28028;SDS011;15345;59.364;18.016;2022-09-30T08:05:19;2.85;;;2.65;;
28028;SDS011;15345;59.364;18.016;2022-09-30T08:06:39;2.88;;;2.67;;
28028;SDS011;15345;59.364;18.016;2022-09-30T08:07:58;4.55;;;2.85;;
28028;SDS011;15345;59.364;18.016;2022-09-30T08:09:18;4.30;;;2.65;;
28028;SDS011;15345;59.364;18.016;2022-09-30T08:10:37;4.65;;;2.47;;
28028;SDS011;15345;59.364;18.016;2022-09-30T08:11:56;6.03;;;2.38;;
28028;SDS011;15345;59.364;18.016;2022-09-30T08:13:15;3.40;;;2.30;;
28028;SDS011;15345;59.364;18.016;2022-09-30T08:14:34;2.95;;;2.35;;
28028;SDS011;15345;59.364;18.016;2022-09-30T08:15:53;4.60;;;2.42;;
28028;SDS011;15345;59.364;18.016;2022-09-30T08:17:12;2.47;;;2.28;;
28028;SDS011;15345;59.364;18.016;2022-09-30T08:18:31;4.78;;;2.42;;
28028;SDS011;15345;59.364;18.016;2022-09-30T08:19:50;2.85;;;2.33;;
28028;SDS011;15345;59.364;18.016;2022-09-30T08:21:09;3.40;;;2.28;;
28028;SDS011;15345;59.364;18.016;2022-09-30T08:22:28;4.15;;;2.25;;
28028;SDS011;15345;59.364;18.016;2022-09-30T08:23:47;2.67;;;2.10;;
28028;SDS011;15345;59.364;18.016;2022-09-30T08:25:06;2.80;;;2.60;;
28028;SDS011;15345;59.364;18.016;2022-09-30T08:26:25;6.40;;;2.80;;
28028;SDS011;15345;59.364;18.016;2022-09-30T08:27:44;3.63;;;2.20;;
28028;SDS011;15345;59.364;18.016;2022-09-30T08:29:03;2.45;;;2.25;;
28028;SDS011;15345;59.364;18.016;2022-09-30T08:30:22;2.30;;;2.20;;
28028;SDS011;15345;59.364;18.016;2022-09-30T08:31:40;4.45;;;2.38;;
28028;SDS011;15345;59.364;18.016;2022-09-30T08:32:59;2.83;;;2.22;;
28028;SDS011;15345;59.364;18.016;2022-09-30T08:34:18;2.75;;;2.53;;
28028;SDS011;15345;59.364;18.016;2022-09-30T08:35:37;4.32;;;2.33;;
28028;SDS011;15345;59.364;18.016;2022-09-30T08:36:56;4.22;;;2.45;;
28028;SDS011;15345;59.364;18.016;2022-09-30T08:38:14;2.15;;;2.03;;
28028;SDS011;15345;59.364;18.016;2022-09-30T08:39:33;4.68;;;2.25;;
28028;SDS011;15345;59.364;18.016;2022-09-30T08:43:42;2.85;;;2.65;;
28028;SDS011;15345;59.364;18.016;2022-09-30T08:46:49;3.85;;;2.20;;
28028;SDS011;15345;59.364;18.016;2022-09-30T08:48:16;3.40;;;1.90;;
28028;SDS011;15345;59.364;18.016;2022-09-30T08:52:34;4.28;;;1.98;;
28028;SDS011;15345;59.364;18.016;2022-09-30T08:53:54;2.63;;;2.25;;
28028;SDS011;15345;59.364;18.016;2022-09-30T08:55:19;3.47;;;1.90;;
28028;SDS011;15345;59.364;18.016;2022-09-30T08:56:40;1.98;;;1.80;;
28028;SDS011;15345;59.364;18.016;2022-09-30T08:58:00;2.17;;;2.08;;
28028;SDS011;15345;59.364;18.016;2022-09-30T08:59:24;2.63;;;2.40;;
28028;SDS011;15345;59.364;18.016;2022-09-30T09:00:46;3.60;;;1.98;;
28028;SDS011;15345;59.364;18.016;2022-09-30T09:03:31;2.15;;;1.75;;
28028;SDS011;15345;59.364;18.016;2022-09-30T09:04:52;2.10;;;1.52;;
28028;SDS011;15345;59.364;18.016;2022-09-30T09:06:17;2.17;;;2.08;;
28028;SDS011;15345;59.364;18.016;2022-09-30T09:10:41;5.22;;;2.20;;
28028;SDS011;15345;59.364;18.016;2022-09-30T09:15:06;2.63;;;2.17;;